createdAt,value
2022-08-29T00:00:23.750Z,17.00
2022-08-29T00:02:53.848Z,16.92
2022-08-29T00:05:24.940Z,17.08
2022-08-29T00:07:52.957Z,17.06
2022-08-29T00:10:21.654Z,16.71
2022-08-29T00:12:48.908Z,16.78
2022-08-29T00:15:16.627Z,16.73
2022-08-29T00:17:44.338Z,16.82
2022-08-29T00:20:15.336Z,16.87
2022-08-29T00:22:42.563Z,16.93
2022-08-29T00:25:10.726Z,16.87
2022-08-29T00:27:37.774Z,16.79
2022-08-29T00:30:06.443Z,16.89
2022-08-29T00:32:36.553Z,16.82
2022-08-29T00:35:14.550Z,16.80
2022-08-29T00:37:42.332Z,16.91
2022-08-29T00:40:13.527Z,16.86
2022-08-29T00:42:40.729Z,16.75
2022-08-29T00:45:11.028Z,16.66
2022-08-29T00:47:43.305Z,16.69
2022-08-29T00:50:22.477Z,16.79
2022-08-29T00:52:49.456Z,16.54
2022-08-29T00:55:22.411Z,16.19
2022-08-29T00:57:56.320Z,16.16
2022-08-29T01:00:24.562Z,16.05
2022-08-29T01:02:51.462Z,16.14
2022-08-29T01:05:19.827Z,16.14
2022-08-29T01:07:48.472Z,16.27
2022-08-29T01:10:36.234Z,16.30
2022-08-29T01:13:04.906Z,16.13
2022-08-29T01:15:33.369Z,16.22
2022-08-29T01:18:02.686Z,16.14
2022-08-29T01:20:47.823Z,16.06
2022-08-29T01:23:26.946Z,15.65
2022-08-29T01:25:54.923Z,15.65
2022-08-29T01:28:30.381Z,15.78
2022-08-29T01:31:10.513Z,15.93
2022-08-29T01:33:42.604Z,16.02
2022-08-29T01:36:12.685Z,16.10
2022-08-29T01:38:40.300Z,16.18
2022-08-29T01:41:07.803Z,16.19
2022-08-29T01:43:43.983Z,16.21
2022-08-29T01:46:14.190Z,16.08
2022-08-29T01:48:44.022Z,16.06
2022-08-29T01:51:12.086Z,15.98
2022-08-29T01:53:39.322Z,15.91
2022-08-29T01:56:18.545Z,15.72
2022-08-29T01:58:47.466Z,15.62
2022-08-29T02:01:17.951Z,15.52
2022-08-29T02:03:45.301Z,15.45
2022-08-29T02:06:12.763Z,15.36
2022-08-29T02:08:41.595Z,15.46
2022-08-29T02:11:10.245Z,15.56
2022-08-29T02:13:38.454Z,15.62
2022-08-29T02:16:05.461Z,15.51
2022-08-29T02:18:33.257Z,15.41
2022-08-29T02:21:01.009Z,15.44
2022-08-29T02:23:31.195Z,15.47
2022-08-29T02:25:58.590Z,15.52
2022-08-29T02:28:25.302Z,15.57
2022-08-29T02:30:56.317Z,15.51
2022-08-29T02:33:24.680Z,15.45
2022-08-29T02:35:52.187Z,15.42
2022-08-29T02:38:19.458Z,15.31
2022-08-29T02:40:47.197Z,15.26
2022-08-29T02:43:16.576Z,15.14
2022-08-29T02:45:43.808Z,15.11
2022-08-29T02:48:14.065Z,15.26
2022-08-29T02:50:43.963Z,15.30
2022-08-29T02:53:11.872Z,15.32
2022-08-29T02:55:38.857Z,15.31
2022-08-29T02:58:05.735Z,15.22
2022-08-29T03:00:33.822Z,15.06
2022-08-29T03:03:01.009Z,15.18
2022-08-29T03:05:33.186Z,15.19
2022-08-29T03:07:59.892Z,15.12
2022-08-29T03:10:27.174Z,15.17
2022-08-29T03:12:54.661Z,15.21
2022-08-29T03:15:22.438Z,15.26
2022-08-29T03:17:49.855Z,15.22
2022-08-29T03:20:19.243Z,15.13
2022-08-29T03:22:46.940Z,15.01
2022-08-29T03:25:14.797Z,15.01
2022-08-29T03:27:41.524Z,14.98
2022-08-29T03:30:11.094Z,14.95
2022-08-29T03:32:38.255Z,14.82
2022-08-29T03:35:06.159Z,14.71
2022-08-29T03:37:32.798Z,14.65
2022-08-29T03:39:59.687Z,14.68
2022-08-29T03:42:26.946Z,14.71
2022-08-29T03:44:53.572Z,14.85
2022-08-29T03:47:20.162Z,14.82
2022-08-29T03:49:46.745Z,14.47
2022-08-29T03:52:13.719Z,14.25
2022-08-29T03:54:40.448Z,14.41
2022-08-29T03:57:08.115Z,14.59
2022-08-29T03:59:35.659Z,14.59
2022-08-29T04:02:02.665Z,14.45
2022-08-29T04:04:48.112Z,14.57
2022-08-29T04:07:15.137Z,14.51
2022-08-29T04:09:41.892Z,14.46
2022-08-29T04:12:11.393Z,14.47
2022-08-29T04:14:39.115Z,14.56
2022-08-29T04:17:06.391Z,14.57
2022-08-29T04:19:35.105Z,14.43
2022-08-29T04:22:02.946Z,14.19
2022-08-29T04:24:34.132Z,14.33
2022-08-29T04:27:01.452Z,14.50
2022-08-29T04:29:28.358Z,14.37
2022-08-29T04:31:55.186Z,14.38
2022-08-29T04:34:21.882Z,14.36
2022-08-29T04:36:48.577Z,14.16
2022-08-29T04:39:15.993Z,14.18
2022-08-29T04:41:43.132Z,14.18
2022-08-29T04:44:12.226Z,14.18
2022-08-29T04:46:39.761Z,14.22
2022-08-29T04:49:06.587Z,14.35
2022-08-29T04:51:35.492Z,14.34
2022-08-29T04:54:03.867Z,14.00
2022-08-29T04:56:30.826Z,13.96
2022-08-29T04:58:57.723Z,13.79
2022-08-29T05:01:26.918Z,13.68
2022-08-29T05:03:55.113Z,13.84
2022-08-29T05:06:23.423Z,13.76
2022-08-29T05:08:59.250Z,13.58
2022-08-29T05:11:29.392Z,13.98
2022-08-29T05:13:56.135Z,14.14
2022-08-29T05:16:22.863Z,14.15
2022-08-29T05:18:49.985Z,14.11
2022-08-29T05:21:27.044Z,14.18
2022-08-29T05:23:56.436Z,14.27
2022-08-29T05:26:23.520Z,14.30
2022-08-29T05:28:50.430Z,14.41
2022-08-29T05:31:17.661Z,14.43
2022-08-29T05:33:44.484Z,14.31
2022-08-29T05:36:11.237Z,14.24
2022-08-29T05:38:38.052Z,14.21
2022-08-29T05:41:05.232Z,14.20
2022-08-29T05:43:32.689Z,14.21
2022-08-29T05:46:04.498Z,14.30
2022-08-29T05:48:32.768Z,14.42
2022-08-29T05:51:00.032Z,14.28
2022-08-29T05:53:27.241Z,14.11
2022-08-29T05:55:54.399Z,14.05
2022-08-29T05:58:21.246Z,14.37
2022-08-29T06:00:48.567Z,14.09
2022-08-29T06:03:16.321Z,14.17
2022-08-29T06:05:43.257Z,14.20
2022-08-29T06:08:11.217Z,14.37
2022-08-29T06:10:43.412Z,14.48
2022-08-29T06:13:10.484Z,14.56
2022-08-29T06:15:37.195Z,14.70
2022-08-29T06:18:04.587Z,14.81
2022-08-29T06:20:31.293Z,14.99
2022-08-29T06:22:57.963Z,14.70
2022-08-29T06:25:40.547Z,14.78
2022-08-29T06:28:08.127Z,14.89
2022-08-29T06:30:34.928Z,14.78
2022-08-29T06:33:02.376Z,14.81
2022-08-29T06:35:29.904Z,14.85
2022-08-29T06:37:56.733Z,14.84
2022-08-29T06:40:23.386Z,15.10
2022-08-29T06:42:50.189Z,15.44
2022-08-29T06:45:17.302Z,15.46
2022-08-29T06:47:46.420Z,15.63
2022-08-29T06:50:14.450Z,15.64
2022-08-29T06:52:41.273Z,15.73
2022-08-29T06:55:13.908Z,15.85
2022-08-29T06:57:44.462Z,15.94
2022-08-29T07:00:21.737Z,16.05
2022-08-29T07:02:51.408Z,16.15
2022-08-29T07:05:21.310Z,16.19
2022-08-29T07:07:48.286Z,16.24
2022-08-29T07:10:18.779Z,16.17
2022-08-29T07:12:48.910Z,16.13
2022-08-29T07:15:15.537Z,16.08
2022-08-29T07:17:42.543Z,16.23
2022-08-29T07:20:10.300Z,16.27
2022-08-29T07:22:37.330Z,16.52
2022-08-29T07:25:04.209Z,16.44
2022-08-29T07:27:30.908Z,16.39
2022-08-29T07:29:58.154Z,16.49
2022-08-29T07:32:25.998Z,16.49
2022-08-29T07:34:55.929Z,16.63
2022-08-29T07:37:23.358Z,16.75
2022-08-29T07:39:49.961Z,16.93
2022-08-29T07:42:16.989Z,17.06
2022-08-29T07:44:43.688Z,17.22
2022-08-29T07:47:10.520Z,17.23
2022-08-29T07:49:41.508Z,17.45
2022-08-29T07:52:08.525Z,17.57
2022-08-29T07:54:35.368Z,17.75
2022-08-29T07:57:02.011Z,17.73
2022-08-29T07:59:30.910Z,17.80
2022-08-29T08:01:57.552Z,17.91
2022-08-29T08:04:24.318Z,17.72
2022-08-29T08:06:50.948Z,17.75
2022-08-29T08:09:17.560Z,17.80
2022-08-29T08:11:44.238Z,17.55
2022-08-29T08:14:11.529Z,17.60
2022-08-29T08:16:39.305Z,17.76
2022-08-29T08:19:13.088Z,17.73
2022-08-29T08:21:46.936Z,17.72
2022-08-29T08:24:19.716Z,17.86
2022-08-29T08:26:48.834Z,17.80
2022-08-29T08:29:15.915Z,17.81
2022-08-29T08:31:49.401Z,17.89
2022-08-29T08:34:17.824Z,17.90
2022-08-29T08:36:45.839Z,17.94
2022-08-29T08:39:13.825Z,17.86
2022-08-29T08:42:05.452Z,17.98
2022-08-29T08:45:01.784Z,18.01
2022-08-29T08:47:30.972Z,18.14
2022-08-29T08:50:06.592Z,18.21
2022-08-29T08:52:38.236Z,18.23
2022-08-29T08:55:14.909Z,18.20
2022-08-29T08:57:52.315Z,18.12
2022-08-29T09:00:19.036Z,18.06
2022-08-29T09:03:13.331Z,18.07
2022-08-29T09:06:10.400Z,18.12
2022-08-29T09:08:52.665Z,18.03
2022-08-29T09:12:04.781Z,18.17
2022-08-29T09:14:46.915Z,18.16
2022-08-29T09:17:42.092Z,18.29
2022-08-29T09:20:13.725Z,18.35
2022-08-29T09:22:43.010Z,18.37
2022-08-29T09:25:12.711Z,18.33
2022-08-29T09:27:39.487Z,18.49
2022-08-29T09:30:10.783Z,18.56
2022-08-29T09:32:56.275Z,18.53
2022-08-29T09:35:27.432Z,18.57
2022-08-29T09:38:17.336Z,18.57
2022-08-29T09:41:03.613Z,18.43
2022-08-29T09:43:50.395Z,18.49
2022-08-29T09:46:20.936Z,18.58
2022-08-29T09:48:51.135Z,18.58
2022-08-29T09:51:33.174Z,18.70
2022-08-29T09:54:27.190Z,18.60
2022-08-29T09:57:18.119Z,18.49
2022-08-29T10:00:05.738Z,18.50
2022-08-29T10:02:43.777Z,18.60
2022-08-29T10:05:27.937Z,18.44
2022-08-29T10:07:55.322Z,18.56
2022-08-29T10:10:30.046Z,18.69
2022-08-29T10:13:15.919Z,18.92
2022-08-29T10:16:01.351Z,19.15
2022-08-29T10:18:46.992Z,19.29
2022-08-29T10:21:54.983Z,19.25
2022-08-29T10:24:30.653Z,19.46
2022-08-29T10:27:15.717Z,19.52
2022-08-29T10:30:01.722Z,19.57
2022-08-29T10:32:48.667Z,19.62
2022-08-29T10:35:30.903Z,19.65
2022-08-29T10:37:59.340Z,19.52
2022-08-29T10:41:04.394Z,19.62
2022-08-29T10:44:09.595Z,19.56
2022-08-29T10:46:41.978Z,19.49
2022-08-29T10:49:16.344Z,19.65
2022-08-29T10:52:07.844Z,19.67
2022-08-29T10:54:58.846Z,19.49
2022-08-29T10:57:41.391Z,19.62
2022-08-29T11:00:21.141Z,19.71
2022-08-29T11:03:09.096Z,19.75
2022-08-29T11:05:44.169Z,19.85
2022-08-29T11:08:27.342Z,19.94
2022-08-29T11:10:54.185Z,20.06
2022-08-29T11:13:28.571Z,20.00
2022-08-29T11:16:19.035Z,20.10
2022-08-29T11:19:00.199Z,20.24
2022-08-29T11:21:56.738Z,20.24
2022-08-29T11:24:29.730Z,20.11
2022-08-29T11:27:31.507Z,20.03
2022-08-29T11:30:10.907Z,19.97
2022-08-29T11:32:50.837Z,19.98
2022-08-29T11:36:00.112Z,20.16
2022-08-29T11:38:36.439Z,20.03
2022-08-29T11:44:11.583Z,20.13
2022-08-29T11:46:52.898Z,20.27
2022-08-29T11:49:38.036Z,20.26
2022-08-29T11:52:11.032Z,20.25
2022-08-29T11:54:39.001Z,20.32
2022-08-29T11:57:05.674Z,20.42
2022-08-29T11:59:56.385Z,20.49
2022-08-29T12:02:31.676Z,20.54
2022-08-29T12:05:46.132Z,20.64
2022-08-29T12:08:36.913Z,20.69
2022-08-29T12:11:05.577Z,20.73
2022-08-29T12:13:50.717Z,20.69
2022-08-29T12:16:27.095Z,20.73
2022-08-29T12:18:56.512Z,20.76
2022-08-29T12:21:39.266Z,20.96
2022-08-29T12:24:27.510Z,21.17
2022-08-29T12:26:54.789Z,21.21
2022-08-29T12:29:27.720Z,21.29
2022-08-29T12:32:39.784Z,21.26
2022-08-29T12:35:23.195Z,21.22
2022-08-29T12:38:18.970Z,21.36
2022-08-29T12:41:00.915Z,21.16
2022-08-29T12:43:42.781Z,21.24
2022-08-29T12:46:34.880Z,21.35
2022-08-29T12:49:29.654Z,21.34
2022-08-29T12:52:01.472Z,21.42
2022-08-29T12:54:41.846Z,21.39
2022-08-29T12:57:19.482Z,21.29
2022-08-29T12:59:53.056Z,21.22
2022-08-29T13:02:38.900Z,21.21
2022-08-29T13:05:19.107Z,21.14
2022-08-29T13:08:10.987Z,21.08
2022-08-29T13:11:02.173Z,21.22
2022-08-29T13:13:30.105Z,21.24
2022-08-29T13:16:02.646Z,21.41
2022-08-29T13:18:31.098Z,21.42
2022-08-29T13:21:06.715Z,21.45
2022-08-29T13:23:45.672Z,21.45
2022-08-29T13:26:13.176Z,21.46
2022-08-29T13:28:47.570Z,21.31
2022-08-29T13:31:14.504Z,21.41
2022-08-29T13:34:04.286Z,21.29
2022-08-29T13:36:38.991Z,21.45
2022-08-29T13:39:19.060Z,21.61
2022-08-29T13:42:09.469Z,21.58
2022-08-29T13:45:07.427Z,21.71
2022-08-29T13:47:52.168Z,21.74
2022-08-29T13:50:19.091Z,21.66
2022-08-29T13:52:46.268Z,21.73
2022-08-29T13:55:13.053Z,21.73
2022-08-29T13:57:42.335Z,21.88
2022-08-29T14:00:12.192Z,22.02
2022-08-29T14:02:44.236Z,21.88
2022-08-29T14:05:13.842Z,21.89
2022-08-29T14:07:43.589Z,21.86
2022-08-29T14:10:11.746Z,21.91
2022-08-29T14:12:38.688Z,21.91
2022-08-29T14:15:09.714Z,22.06
2022-08-29T14:17:40.603Z,21.94
2022-08-29T14:20:09.790Z,21.94
2022-08-29T14:22:37.276Z,22.09
2022-08-29T14:25:05.732Z,22.05
2022-08-29T14:27:32.756Z,22.09
2022-08-29T14:30:00.855Z,22.10
2022-08-29T14:32:27.660Z,21.99
2022-08-29T14:34:54.601Z,21.95
2022-08-29T14:37:21.555Z,22.07
2022-08-29T14:39:49.967Z,22.21
2022-08-29T14:42:18.459Z,22.27
2022-08-29T14:44:45.382Z,22.30
2022-08-29T14:47:12.693Z,22.30
2022-08-29T14:49:40.118Z,22.38
2022-08-29T14:52:07.226Z,22.20
2022-08-29T14:54:34.428Z,22.20
2022-08-29T14:57:01.137Z,22.22
2022-08-29T14:59:28.065Z,22.39
2022-08-29T15:01:55.491Z,22.36
2022-08-29T15:04:36.399Z,22.39
2022-08-29T15:07:11.658Z,22.36
2022-08-29T15:09:40.081Z,22.38
2022-08-29T15:12:06.955Z,22.44
2022-08-29T15:14:34.727Z,22.38
2022-08-29T15:17:02.383Z,22.35
2022-08-29T15:22:16.372Z,22.54
2022-08-29T15:24:43.276Z,22.56
2022-08-29T15:27:10.416Z,22.53
2022-08-29T15:29:40.475Z,22.53
2022-08-29T15:32:07.895Z,22.66
2022-08-29T15:34:34.915Z,22.74
2022-08-29T15:37:02.575Z,22.68
2022-08-29T15:39:29.769Z,22.75
2022-08-29T15:41:58.801Z,22.73
2022-08-29T15:44:27.046Z,22.72
2022-08-29T15:46:56.949Z,22.76
2022-08-29T15:49:25.656Z,22.80
2022-08-29T15:51:53.075Z,22.72
2022-08-29T15:54:20.999Z,22.71
2022-08-29T15:56:48.396Z,22.73
2022-08-29T15:59:16.275Z,22.78
2022-08-29T16:01:47.208Z,22.83
2022-08-29T16:04:16.160Z,22.82
2022-08-29T16:06:43.347Z,22.78
2022-08-29T16:09:15.881Z,22.72
2022-08-29T16:11:44.953Z,22.74
2022-08-29T16:14:57.416Z,22.84
2022-08-29T16:16:59.603Z,22.80
2022-08-29T16:19:26.393Z,22.80
2022-08-29T16:21:53.956Z,22.92
2022-08-29T16:24:22.918Z,22.91
2022-08-29T16:26:49.661Z,23.08
2022-08-29T16:29:18.056Z,23.17
2022-08-29T16:31:53.992Z,23.31
2022-08-29T16:34:22.818Z,23.40
2022-08-29T16:36:49.784Z,23.46
2022-08-29T16:39:16.541Z,23.51
2022-08-29T16:41:44.474Z,23.63
2022-08-29T16:44:11.289Z,23.63
2022-08-29T16:46:38.432Z,23.51
2022-08-29T16:49:05.474Z,23.61
2022-08-29T16:51:32.089Z,23.68
2022-08-29T16:53:59.328Z,23.72
2022-08-29T16:56:27.273Z,23.66
2022-08-29T16:59:00.158Z,23.64
2022-08-29T17:01:35.325Z,23.75
2022-08-29T17:04:04.336Z,23.72
2022-08-29T17:06:31.836Z,23.75
2022-08-29T17:08:59.154Z,23.82
2022-08-29T17:11:26.554Z,23.83
2022-08-29T17:13:54.514Z,23.89
2022-08-29T17:16:22.572Z,23.74
2022-08-29T17:18:50.080Z,23.62
2022-08-29T17:21:17.067Z,23.64
2022-08-29T17:23:44.684Z,23.41
2022-08-29T17:26:13.345Z,23.55
2022-08-29T17:28:40.390Z,23.62
2022-08-29T17:31:07.882Z,23.64
2022-08-29T17:33:35.009Z,23.54
2022-08-29T17:36:04.540Z,23.40
2022-08-29T17:38:31.926Z,23.53
2022-08-29T17:41:02.327Z,23.62
2022-08-29T17:43:32.776Z,23.48
2022-08-29T17:45:59.508Z,23.39
2022-08-29T17:48:26.262Z,23.27
2022-08-29T17:50:53.870Z,23.19
2022-08-29T17:53:21.232Z,22.88
2022-08-29T17:55:50.494Z,22.99
2022-08-29T17:58:19.310Z,23.03
2022-08-29T18:00:46.724Z,22.89
2022-08-29T18:03:13.899Z,22.67
2022-08-29T18:05:40.547Z,22.62
2022-08-29T18:08:07.187Z,22.63
2022-08-29T18:10:33.868Z,22.67
2022-08-29T18:13:00.544Z,22.62
2022-08-29T18:15:28.346Z,22.55
2022-08-29T18:17:55.613Z,22.51
2022-08-29T18:20:23.194Z,22.40
2022-08-29T18:22:50.068Z,22.28
2022-08-29T18:25:22.298Z,22.15
2022-08-29T18:27:50.526Z,22.09
2022-08-29T18:30:17.585Z,22.04
2022-08-29T18:32:44.324Z,22.01
2022-08-29T18:35:11.686Z,21.98
2022-08-29T18:37:38.733Z,21.88
2022-08-29T18:40:08.180Z,21.84
2022-08-29T18:42:41.072Z,21.80
2022-08-29T18:45:10.061Z,21.72
2022-08-29T18:47:37.191Z,21.63
2022-08-29T18:50:24.978Z,21.58
2022-08-29T18:52:53.077Z,21.45
2022-08-29T18:55:20.101Z,21.46
2022-08-29T18:57:48.093Z,21.48
2022-08-29T19:00:16.028Z,21.44
2022-08-29T19:02:43.080Z,21.37
2022-08-29T19:05:10.385Z,21.28
2022-08-29T19:07:37.854Z,21.22
2022-08-29T19:10:06.508Z,21.22
2022-08-29T19:12:33.821Z,21.10
2022-08-29T19:15:00.584Z,20.99
2022-08-29T19:17:27.559Z,21.02
2022-08-29T19:20:12.872Z,20.99
2022-08-29T19:22:39.613Z,20.97
2022-08-29T19:25:08.595Z,20.95
2022-08-29T19:27:43.755Z,20.87
2022-08-29T19:30:11.594Z,20.76
2022-08-29T19:32:38.490Z,20.83
2022-08-29T19:35:05.850Z,20.88
2022-08-29T19:37:33.047Z,20.82
2022-08-29T19:39:59.808Z,20.81
2022-08-29T19:42:28.153Z,20.73
2022-08-29T19:44:55.257Z,20.70
2022-08-29T19:47:23.398Z,20.58
2022-08-29T19:49:50.949Z,20.59
2022-08-29T19:52:18.015Z,20.59
2022-08-29T19:54:44.796Z,20.58
2022-08-29T19:57:14.762Z,20.60
2022-08-29T19:59:43.643Z,20.58
2022-08-29T20:02:10.525Z,20.55
2022-08-29T20:04:38.288Z,20.42
2022-08-29T20:07:05.469Z,20.15
2022-08-29T20:09:32.342Z,20.23
2022-08-29T20:11:59.369Z,20.34
2022-08-29T20:14:26.355Z,20.34
2022-08-29T20:16:53.820Z,20.35
2022-08-29T20:19:21.433Z,20.35
2022-08-29T20:21:49.810Z,20.18
2022-08-29T20:24:17.124Z,20.25
2022-08-29T20:26:49.468Z,20.32
2022-08-29T20:29:20.599Z,20.31
2022-08-29T20:31:47.687Z,20.34
2022-08-29T20:34:14.874Z,20.28
2022-08-29T20:37:17.755Z,20.23
2022-08-29T20:39:46.906Z,20.22
2022-08-29T20:42:16.710Z,20.26
2022-08-29T20:44:45.210Z,20.25
2022-08-29T20:47:16.213Z,20.19
2022-08-29T20:49:43.919Z,20.18
2022-08-29T20:52:13.013Z,20.14
2022-08-29T20:54:40.209Z,20.22
2022-08-29T20:57:07.154Z,20.28
2022-08-29T20:59:39.441Z,20.30
2022-08-29T21:02:08.320Z,20.30
2022-08-29T21:04:54.276Z,20.26
2022-08-29T21:07:21.056Z,20.18
2022-08-29T21:09:50.426Z,20.00
2022-08-29T21:12:18.623Z,19.87
2022-08-29T21:14:46.202Z,19.89
2022-08-29T21:17:14.774Z,20.01
2022-08-29T21:19:43.035Z,20.11
2022-08-29T21:22:12.977Z,20.17
2022-08-29T21:24:40.065Z,20.15
2022-08-29T21:27:06.831Z,20.13
2022-08-29T21:29:33.855Z,20.07
2022-08-29T21:32:00.481Z,20.04
2022-08-29T21:34:27.320Z,19.92
2022-08-29T21:36:54.433Z,19.93
2022-08-29T21:39:28.626Z,19.92
2022-08-29T21:41:57.308Z,19.83
2022-08-29T21:44:23.994Z,19.85
2022-08-29T21:46:50.891Z,19.73
2022-08-29T21:49:19.572Z,19.68
2022-08-29T21:51:47.204Z,19.61
2022-08-29T21:54:15.844Z,19.34
2022-08-29T21:56:43.774Z,19.33
2022-08-29T21:59:11.169Z,19.11
2022-08-29T22:01:38.985Z,19.18
2022-08-29T22:04:09.439Z,19.42
2022-08-29T22:06:39.757Z,19.40
2022-08-29T22:09:10.541Z,19.26
2022-08-29T22:11:38.472Z,19.44
2022-08-29T22:14:07.228Z,19.58
2022-08-29T22:16:35.565Z,19.57
2022-08-29T22:19:04.089Z,19.63
2022-08-29T22:21:35.766Z,19.51
2022-08-29T22:24:02.922Z,19.58
2022-08-29T22:26:29.667Z,19.73
2022-08-29T22:28:57.092Z,19.68
2022-08-29T22:31:24.338Z,19.74
2022-08-29T22:33:51.633Z,19.62
2022-08-29T22:36:19.189Z,19.78
2022-08-29T22:38:47.134Z,19.87
2022-08-29T22:41:22.030Z,19.66
2022-08-29T22:43:54.678Z,19.54
2022-08-29T22:46:36.060Z,19.48
2022-08-29T22:49:02.914Z,19.49
2022-08-29T22:51:29.684Z,19.71
2022-08-29T22:54:15.091Z,19.65
2022-08-29T22:56:43.293Z,19.83
2022-08-29T22:59:10.576Z,20.00
2022-08-29T23:01:43.543Z,20.07
2022-08-29T23:04:11.153Z,20.03
2022-08-29T23:06:37.857Z,20.11
2022-08-29T23:09:05.426Z,20.11
2022-08-29T23:11:32.620Z,20.20
2022-08-29T23:13:59.406Z,20.06
2022-08-29T23:16:27.016Z,20.07
2022-08-29T23:18:53.679Z,20.00
2022-08-29T23:21:22.802Z,19.98
2022-08-29T23:23:50.755Z,20.00
2022-08-29T23:26:18.444Z,19.92
2022-08-29T23:28:45.498Z,19.74
2022-08-29T23:31:14.576Z,19.64
2022-08-29T23:33:41.916Z,19.81
2022-08-29T23:36:09.066Z,20.04
2022-08-29T23:38:36.137Z,19.94
2022-08-29T23:41:02.880Z,19.85
2022-08-29T23:43:31.536Z,19.75
2022-08-29T23:46:04.326Z,19.80
2022-08-29T23:48:31.783Z,19.90
2022-08-29T23:50:58.822Z,19.99
2022-08-29T23:53:25.703Z,20.07
2022-08-29T23:55:52.762Z,20.09
2022-08-29T23:58:19.483Z,19.89
